Terminal Aerodrome Forecast
Issued by NWS Blacksburg, VA

Current Version | Previous Version | Graphics & Text | Print | Product List | Glossary On
Versions: 1 2 3 4 5 6 7 8 9 10 11 12 13 14 15 16 17 18 19 20 21 22 23 24 25 26 27 28 29 30 31 32 33 34 35 36 37 38
000
FTUS41 KRNK 291729
TAFBLF
TAF
KBLF 291729Z 2918/3018 25008KT P6SM FEW030 SCT040 BKN060
     FM292000 30008KT P6SM SCT040 BKN060
     FM300100 27003KT P6SM SCT040
     FM300900 24003KT 6SM BR SCT008 BKN025
     FM301300 29006KT P6SM FEW020 SCT040=

USA.gov is the U.S. government's official web portal to all federal, state and local government web resources and services.